createdAt,value
2022-12-18T00:02:00.046Z,102262.43
2022-12-18T00:04:28.041Z,102267.41
2022-12-18T00:06:55.092Z,102272.05
2022-12-18T00:09:21.964Z,102275.35
2022-12-18T00:11:51.308Z,102272.45
2022-12-18T00:14:17.766Z,102270.24
2022-12-18T00:16:47.555Z,102273.89
2022-12-18T00:19:15.464Z,102275.47
2022-12-18T00:21:42.966Z,102276.52
2022-12-18T00:24:10.728Z,102280.84
2022-12-18T00:26:38.413Z,102283.42
2022-12-18T00:29:14.681Z,102286.20
2022-12-18T00:31:42.757Z,102287.75
2022-12-18T00:34:14.040Z,102285.68
2022-12-18T00:36:41.975Z,102284.13
2022-12-18T00:39:09.066Z,102284.98
2022-12-18T00:41:54.099Z,102286.02
2022-12-18T00:44:21.046Z,102288.77
2022-12-18T00:46:49.058Z,102289.97
2022-12-18T00:49:18.812Z,102289.48
2022-12-18T00:51:46.597Z,102298.73
2022-12-18T00:54:13.149Z,102300.65
2022-12-18T00:56:48.170Z,102304.45
2022-12-18T00:59:15.567Z,102310.27
2022-12-18T01:01:42.177Z,102305.83
2022-12-18T01:04:08.787Z,102307.89
2022-12-18T01:06:35.476Z,102309.12
2022-12-18T01:09:02.569Z,102307.59
2022-12-18T01:11:31.417Z,102308.61
2022-12-18T01:14:00.943Z,102305.87
2022-12-18T01:16:27.693Z,102305.54
2022-12-18T01:18:55.483Z,102296.11
2022-12-18T01:21:23.529Z,102292.85
2022-12-18T01:23:55.342Z,102293.54
2022-12-18T01:26:22.613Z,102299.67
2022-12-18T01:28:49.345Z,102302.89
2022-12-18T01:31:22.732Z,102305.94
2022-12-18T01:33:49.786Z,102303.52
2022-12-18T01:36:23.261Z,102310.23
2022-12-18T01:38:50.831Z,102308.83
2022-12-18T01:41:20.299Z,102308.81
2022-12-18T01:43:58.318Z,102308.23
2022-12-18T01:46:26.342Z,102308.52
2022-12-18T01:49:02.087Z,102310.22
2022-12-18T01:51:31.266Z,102307.13
2022-12-18T01:53:59.492Z,102308.48
2022-12-18T01:56:26.252Z,102313.46
2022-12-18T01:59:10.094Z,102314.98
2022-12-18T02:01:38.918Z,102320.30
2022-12-18T02:04:27.679Z,102323.39
2022-12-18T02:07:00.163Z,102325.11
2022-12-18T02:09:38.514Z,102317.73
2022-12-18T02:12:30.356Z,102316.36
2022-12-18T02:15:17.864Z,102321.39
2022-12-18T02:17:52.060Z,102322.64
2022-12-18T02:20:43.237Z,102325.04
2022-12-18T02:23:39.793Z,102324.02
2022-12-18T02:26:20.186Z,102326.19
2022-12-18T02:28:57.816Z,102328.78
2022-12-18T02:31:28.201Z,102326.04
2022-12-18T02:34:03.679Z,102321.73
2022-12-18T02:36:33.399Z,102315.24
2022-12-18T02:39:02.052Z,102311.52
2022-12-18T02:41:30.486Z,102308.12
2022-12-18T02:43:59.553Z,102305.57
2022-12-18T02:46:28.423Z,102306.60
2022-12-18T02:49:03.955Z,102305.73
2022-12-18T02:51:39.448Z,102302.48
2022-12-18T02:54:38.104Z,102306.94
2022-12-18T02:57:16.010Z,102302.17
2022-12-18T02:59:55.189Z,102304.92
2022-12-18T03:02:45.599Z,102297.36
2022-12-18T03:05:23.540Z,102298.55
2022-12-18T03:08:02.670Z,102306.92
2022-12-18T03:10:33.563Z,102308.08
2022-12-18T03:13:05.788Z,102306.30
2022-12-18T03:15:37.987Z,102300.94
2022-12-18T03:18:11.496Z,102300.39
2022-12-18T03:20:40.698Z,102296.92
2022-12-18T03:23:15.216Z,102299.66
2022-12-18T03:25:44.726Z,102299.48
2022-12-18T03:28:15.870Z,102290.90
2022-12-18T03:30:45.597Z,102293.46
2022-12-18T03:33:20.586Z,102293.96
2022-12-18T03:35:47.560Z,102294.95
2022-12-18T03:38:14.650Z,102291.83
2022-12-18T03:40:44.007Z,102289.90
2022-12-18T03:43:36.000Z,102291.77
2022-12-18T03:46:12.728Z,102296.02
2022-12-18T03:48:45.306Z,102295.68
2022-12-18T03:51:35.099Z,102296.19
2022-12-18T03:54:04.964Z,102296.54
2022-12-18T03:56:36.680Z,102296.73
2022-12-18T03:59:06.096Z,102295.04
2022-12-18T04:01:39.429Z,102298.65
2022-12-18T04:04:08.163Z,102292.82
2022-12-18T04:06:37.002Z,102291.97
2022-12-18T04:09:04.940Z,102294.36
2022-12-18T04:11:31.490Z,102297.27
2022-12-18T04:13:59.158Z,102298.12
2022-12-18T04:16:26.966Z,102303.94
2022-12-18T04:18:54.778Z,102309.24
2022-12-18T04:21:21.680Z,102306.83
2022-12-18T04:23:48.089Z,102310.77
2022-12-18T04:26:14.455Z,102310.27
2022-12-18T04:28:40.845Z,102309.24
2022-12-18T04:31:07.406Z,102308.41
2022-12-18T04:33:33.862Z,102301.38
2022-12-18T04:36:00.439Z,102297.61
2022-12-18T04:38:26.848Z,102300.55
2022-12-18T04:40:53.278Z,102301.59
2022-12-18T04:43:19.894Z,102299.20
2022-12-18T04:45:46.593Z,102296.81
2022-12-18T04:48:13.040Z,102289.81
2022-12-18T04:50:39.694Z,102292.58
2022-12-18T04:53:07.444Z,102295.17
2022-12-18T04:55:33.950Z,102296.40
2022-12-18T04:58:00.349Z,102294.36
2022-12-18T05:00:27.023Z,102292.47
2022-12-18T05:02:54.149Z,102291.96
2022-12-18T05:05:20.645Z,102290.58
2022-12-18T05:07:47.032Z,102296.78
2022-12-18T05:10:13.509Z,102297.79
2022-12-18T05:12:58.894Z,102301.56
2022-12-18T05:15:31.569Z,102303.98
2022-12-18T05:17:58.800Z,102304.02
2022-12-18T05:20:26.125Z,102298.17
2022-12-18T05:22:53.140Z,102301.29
2022-12-18T05:25:20.609Z,102300.42
2022-12-18T05:27:47.884Z,102300.59
2022-12-18T05:30:15.547Z,102302.30
2022-12-18T05:32:42.471Z,102305.38
2022-12-18T05:35:11.058Z,102307.74
2022-12-18T05:37:42.717Z,102313.90
2022-12-18T05:40:10.212Z,102323.84
2022-12-18T05:42:36.599Z,102328.15
2022-12-18T05:45:03.410Z,102327.11
2022-12-18T05:47:30.002Z,102323.52
2022-12-18T05:49:56.454Z,102328.67
2022-12-18T05:52:22.933Z,102335.57
2022-12-18T05:54:49.329Z,102338.34
2022-12-18T05:57:15.710Z,102337.33
2022-12-18T05:59:42.274Z,102343.00
2022-12-18T06:02:08.788Z,102349.91
2022-12-18T06:04:35.449Z,102362.44
2022-12-18T06:07:04.713Z,102362.64
2022-12-18T06:09:31.226Z,102354.92
2022-12-18T06:11:57.705Z,102353.39
2022-12-18T06:14:24.102Z,102349.30
2022-12-18T06:16:52.278Z,102346.05
2022-12-18T06:19:18.699Z,102346.25
2022-12-18T06:21:45.089Z,102347.46
2022-12-18T06:24:11.540Z,102347.30
2022-12-18T06:26:39.871Z,102347.67
2022-12-18T06:29:06.779Z,102344.95
2022-12-18T06:31:33.435Z,102348.20
2022-12-18T06:34:03.191Z,102347.87
2022-12-18T06:36:30.401Z,102339.65
2022-12-18T06:38:57.387Z,102334.35
2022-12-18T06:41:23.865Z,102339.84
2022-12-18T06:43:50.237Z,102339.01
2022-12-18T06:46:16.832Z,102338.16
2022-12-18T06:48:43.277Z,102344.15
2022-12-18T06:51:09.611Z,102348.63
2022-12-18T06:53:36.055Z,102348.46
2022-12-18T06:56:09.164Z,102352.77
2022-12-18T06:58:36.594Z,102351.41
2022-12-18T07:01:05.522Z,102355.70
2022-12-18T07:03:32.181Z,102350.40
2022-12-18T07:05:58.586Z,102354.33
2022-12-18T07:08:25.683Z,102359.65
2022-12-18T07:10:56.049Z,102360.31
2022-12-18T07:13:23.358Z,102359.11
2022-12-18T07:15:49.849Z,102359.25
2022-12-18T07:18:16.482Z,102368.14
2022-12-18T07:20:42.899Z,102371.56
2022-12-18T07:23:09.267Z,102373.60
2022-12-18T07:25:36.454Z,102378.55
2022-12-18T07:28:03.081Z,102386.91
2022-12-18T07:30:29.849Z,102393.58
2022-12-18T07:32:56.335Z,102398.03
2022-12-18T07:35:25.217Z,102394.23
2022-12-18T07:37:52.280Z,102389.23
2022-12-18T07:40:18.716Z,102389.05
2022-12-18T07:42:45.104Z,102391.56
2022-12-18T07:45:11.841Z,102396.14
2022-12-18T07:47:38.418Z,102404.84
2022-12-18T07:50:06.276Z,102410.81
2022-12-18T07:52:32.695Z,102416.26
2022-12-18T07:54:59.824Z,102418.09
2022-12-18T08:00:13.581Z,102407.70
2022-12-18T08:02:40.184Z,102405.79
2022-12-18T08:05:07.110Z,102398.88
2022-12-18T08:07:33.583Z,102390.98
2022-12-18T08:10:00.089Z,102386.50
2022-12-18T08:12:26.486Z,102385.09
2022-12-18T08:14:52.864Z,102384.38
2022-12-18T08:17:21.038Z,102382.64
2022-12-18T08:19:47.439Z,102379.85
2022-12-18T08:22:13.876Z,102380.13
2022-12-18T08:24:40.364Z,102377.50
2022-12-18T08:27:28.394Z,102370.93
2022-12-18T08:29:53.252Z,102366.05
2022-12-18T08:32:19.759Z,102368.38
2022-12-18T08:34:46.213Z,102369.52
2022-12-18T08:37:12.777Z,102372.52
2022-12-18T08:39:39.203Z,102372.45
2022-12-18T08:42:24.406Z,102375.97
2022-12-18T08:44:50.810Z,102376.88
2022-12-18T08:47:17.235Z,102366.48
2022-12-18T08:49:43.642Z,102359.19
2022-12-18T08:52:10.427Z,102361.51
2022-12-18T08:54:36.833Z,102351.95
2022-12-18T08:57:03.311Z,102357.16
2022-12-18T08:59:29.730Z,102356.67
2022-12-18T09:01:56.614Z,102356.70
2022-12-18T09:04:23.537Z,102361.69
2022-12-18T09:06:51.192Z,102360.67
2022-12-18T09:09:17.922Z,102357.59
2022-12-18T09:11:44.309Z,102355.85
2022-12-18T09:14:11.293Z,102355.30
2022-12-18T09:16:37.867Z,102357.48
2022-12-18T09:19:06.401Z,102355.56
2022-12-18T09:21:37.228Z,102349.83
2022-12-18T09:24:05.154Z,102340.14
2022-12-18T09:26:35.119Z,102337.15
2022-12-18T09:29:01.544Z,102336.91
2022-12-18T09:31:27.929Z,102334.44
2022-12-18T09:33:56.568Z,102337.16
2022-12-18T09:36:22.996Z,102338.80
2022-12-18T09:38:49.423Z,102343.13
2022-12-18T09:41:20.883Z,102343.30
2022-12-18T09:43:52.546Z,102342.59
2022-12-18T09:46:33.852Z,102342.42
2022-12-18T09:49:04.383Z,102341.27
2022-12-18T09:51:40.934Z,102341.79
2022-12-18T09:54:25.392Z,102344.36
2022-12-18T09:56:52.889Z,102349.80
2022-12-18T09:59:27.504Z,102353.63
2022-12-18T10:01:55.040Z,102356.15
2022-12-18T10:04:21.597Z,102366.38
2022-12-18T10:07:22.608Z,102361.20
2022-12-18T10:10:21.060Z,102359.16
2022-12-18T10:13:08.350Z,102354.69
2022-12-18T10:15:49.095Z,102353.20
2022-12-18T10:18:23.121Z,102359.86
2022-12-18T10:21:03.207Z,102369.05
2022-12-18T10:23:48.189Z,102370.98
2022-12-18T10:26:15.313Z,102366.63
2022-12-18T10:28:43.506Z,102362.70
2022-12-18T10:31:18.172Z,102356.48
2022-12-18T10:33:44.929Z,102349.50
2022-12-18T10:36:11.820Z,102354.91
2022-12-18T10:38:38.821Z,102352.58
2022-12-18T10:41:15.161Z,102352.07
2022-12-18T10:43:41.954Z,102350.94
2022-12-18T10:46:08.389Z,102342.45
2022-12-18T10:48:48.589Z,102341.99
2022-12-18T10:51:38.331Z,102344.42
2022-12-18T10:54:13.765Z,102344.98
2022-12-18T10:56:40.508Z,102342.95
2022-12-18T10:59:11.009Z,102346.63
2022-12-18T11:01:47.144Z,102337.27
2022-12-18T11:04:18.316Z,102336.07
2022-12-18T11:07:05.500Z,102329.33
2022-12-18T11:09:34.120Z,102320.70
2022-12-18T11:12:03.598Z,102301.45
2022-12-18T11:14:34.590Z,102294.96
2022-12-18T11:19:55.499Z,102302.15
2022-12-18T11:22:27.465Z,102313.27
2022-12-18T11:27:56.332Z,102302.69
2022-12-18T11:30:24.482Z,102309.64
2022-12-18T11:32:56.625Z,102313.54
2022-12-18T11:35:43.535Z,102314.70
2022-12-18T11:38:29.361Z,102311.84
2022-12-18T11:41:12.544Z,102315.27
2022-12-18T11:43:49.516Z,102311.48
2022-12-18T11:46:22.444Z,102315.17
2022-12-18T11:48:59.425Z,102309.04
2022-12-18T11:51:43.968Z,102296.63
2022-12-18T11:54:17.226Z,102287.38
2022-12-18T11:57:05.393Z,102276.71
2022-12-18T11:59:49.020Z,102266.52
2022-12-18T12:02:38.107Z,102248.27
2022-12-18T12:05:41.710Z,102239.92
2022-12-18T12:08:40.641Z,102238.69
2022-12-18T12:11:18.745Z,102239.96
2022-12-18T12:14:18.338Z,102242.10
2022-12-18T12:16:59.646Z,102230.63
2022-12-18T12:19:43.330Z,102218.19
2022-12-18T12:22:46.970Z,102215.09
2022-12-18T12:25:22.525Z,102206.33
2022-12-18T12:28:18.741Z,102209.81
2022-12-18T12:31:20.170Z,102217.10
2022-12-18T12:33:55.920Z,102209.18
2022-12-18T12:36:42.113Z,102208.50
2022-12-18T12:39:13.680Z,102212.88
2022-12-18T12:42:02.097Z,102211.25
2022-12-18T12:44:34.665Z,102205.16
2022-12-18T12:47:15.778Z,102205.08
2022-12-18T12:49:48.394Z,102198.13
2022-12-18T12:52:27.962Z,102187.90
2022-12-18T12:54:55.724Z,102196.77
2022-12-18T12:57:47.110Z,102200.59
2022-12-18T13:00:20.099Z,102195.93
2022-12-18T13:02:53.628Z,102190.20
2022-12-18T13:05:34.719Z,102187.28
2022-12-18T13:08:07.066Z,102186.42
2022-12-18T13:10:36.829Z,102191.71
2022-12-18T13:13:09.223Z,102188.20
2022-12-18T13:16:08.375Z,102179.16
2022-12-18T13:18:35.410Z,102180.41
2022-12-18T13:21:03.758Z,102180.77
2022-12-18T13:23:41.666Z,102180.95
2022-12-18T13:26:11.855Z,102180.91
2022-12-18T13:28:47.383Z,102182.88
2022-12-18T13:31:42.105Z,102184.25
2022-12-18T13:34:28.062Z,102182.30
2022-12-18T13:36:57.450Z,102188.98
2022-12-18T13:39:30.281Z,102189.41
2022-12-18T13:42:07.040Z,102187.64
2022-12-18T13:44:40.704Z,102185.98
2022-12-18T13:47:34.322Z,102187.56
2022-12-18T13:50:10.355Z,102184.30
2022-12-18T13:52:40.228Z,102179.45
2022-12-18T13:55:16.562Z,102177.94
2022-12-18T13:57:43.040Z,102173.82
2022-12-18T14:00:30.245Z,102178.19
2022-12-18T14:02:59.113Z,102171.71
2022-12-18T14:05:26.675Z,102168.67
2022-12-18T14:07:55.116Z,102161.11
2022-12-18T14:10:47.662Z,102149.83
2022-12-18T14:13:11.695Z,102141.20
2022-12-18T14:15:48.922Z,102141.59
2022-12-18T14:18:29.378Z,102143.02
2022-12-18T14:21:00.780Z,102140.44
2022-12-18T14:23:30.901Z,102136.19
2022-12-18T14:26:02.111Z,102133.09
2022-12-18T14:28:31.755Z,102140.90
2022-12-18T14:30:58.388Z,102131.75
2022-12-18T14:33:27.357Z,102118.23
2022-12-18T14:35:56.695Z,102114.95
2022-12-18T14:38:28.104Z,102116.23
2022-12-18T14:41:02.922Z,102115.08
2022-12-18T14:43:35.591Z,102107.95
2022-12-18T14:46:04.113Z,102105.16
2022-12-18T14:48:38.702Z,102106.67
2022-12-18T14:51:18.369Z,102105.95
2022-12-18T14:54:10.749Z,102102.32
2022-12-18T14:56:43.597Z,102103.48
2022-12-18T14:59:23.767Z,102100.66
2022-12-18T15:02:02.629Z,102097.66
2022-12-18T15:04:35.572Z,102098.98
2022-12-18T15:07:14.559Z,102103.69
2022-12-18T15:09:43.217Z,102102.27
2022-12-18T15:12:27.395Z,102101.98
2022-12-18T15:14:53.790Z,102095.18
2022-12-18T15:17:24.019Z,102090.96
2022-12-18T15:19:59.820Z,102088.95
2022-12-18T15:22:36.643Z,102089.01
2022-12-18T15:25:22.700Z,102083.86
2022-12-18T15:27:49.166Z,102078.31
2022-12-18T15:30:15.676Z,102071.71
2022-12-18T15:32:42.247Z,102064.88
2022-12-18T15:35:11.944Z,102061.64
2022-12-18T15:37:41.846Z,102061.38
2022-12-18T15:40:13.846Z,102063.38
2022-12-18T15:42:58.888Z,102068.89
2022-12-18T15:45:25.402Z,102071.41
2022-12-18T15:47:51.787Z,102061.09
2022-12-18T15:50:18.236Z,102054.60
2022-12-18T15:52:47.801Z,102051.25
2022-12-18T15:55:35.831Z,102043.34
2022-12-18T15:58:03.196Z,102037.89
2022-12-18T16:00:29.844Z,102042.98
2022-12-18T16:02:56.610Z,102043.05
2022-12-18T16:05:24.384Z,102039.29
2022-12-18T16:07:50.838Z,102040.88
2022-12-18T16:10:18.180Z,102042.43
2022-12-18T16:12:44.985Z,102042.30
2022-12-18T16:15:18.448Z,102038.50
2022-12-18T16:17:49.002Z,102033.98
2022-12-18T16:20:21.578Z,102034.66
2022-12-18T16:22:49.296Z,102031.69
2022-12-18T16:25:25.548Z,102027.30
2022-12-18T16:27:52.987Z,102024.86
2022-12-18T16:30:23.355Z,102018.63
2022-12-18T16:32:50.920Z,102013.26
2022-12-18T16:35:17.797Z,102010.25
2022-12-18T16:37:44.820Z,101994.27
2022-12-18T16:40:14.151Z,101989.95
2022-12-18T16:42:42.065Z,101976.61
2022-12-18T16:45:18.721Z,101978.48
2022-12-18T16:47:46.005Z,101982.65
2022-12-18T16:50:13.007Z,101989.43
2022-12-18T16:52:39.620Z,101985.15
2022-12-18T16:55:06.353Z,101986.41
2022-12-18T16:57:33.050Z,101981.13
2022-12-18T17:00:04.689Z,101978.55
2022-12-18T17:02:32.458Z,101970.60
2022-12-18T17:04:59.427Z,101970.94
2022-12-18T17:07:28.227Z,101962.63
2022-12-18T17:09:54.873Z,101963.48
2022-12-18T17:12:21.959Z,101961.61
2022-12-18T17:14:48.638Z,101956.87
2022-12-18T17:17:23.810Z,101952.27
2022-12-18T17:19:51.783Z,101947.11
2022-12-18T17:22:18.784Z,101943.33
2022-12-18T17:24:46.703Z,101944.34
2022-12-18T17:27:13.081Z,101945.58
2022-12-18T17:29:45.325Z,101942.54
2022-12-18T17:32:13.725Z,101947.86
2022-12-18T17:34:40.675Z,101946.07
2022-12-18T17:37:07.406Z,101943.59
2022-12-18T17:39:33.968Z,101940.90
2022-12-18T17:42:01.369Z,101948.52
2022-12-18T17:44:27.948Z,101950.77
2022-12-18T17:46:54.440Z,101949.53
2022-12-18T17:49:21.551Z,101943.92
2022-12-18T17:51:49.010Z,101938.52
2022-12-18T17:54:15.446Z,101942.95
2022-12-18T17:56:41.945Z,101941.73
2022-12-18T17:59:08.447Z,101937.53
2022-12-18T18:01:40.964Z,101934.34
2022-12-18T18:24:53.085Z,101921.42
2022-12-18T18:27:19.558Z,101913.11
2022-12-18T18:29:46.154Z,101905.23
2022-12-18T18:32:12.511Z,101897.35
2022-12-18T18:34:38.924Z,101882.84
2022-12-18T18:37:05.928Z,101882.44
2022-12-18T18:39:32.669Z,101882.48
2022-12-18T18:41:59.360Z,101879.03
2022-12-18T18:44:26.445Z,101878.62
2022-12-18T18:46:57.715Z,101876.71
2022-12-18T18:49:27.417Z,101872.83
2022-12-18T18:51:55.395Z,101871.20
2022-12-18T18:54:22.082Z,101868.21
2022-12-18T18:57:19.467Z,101870.00
2022-12-18T18:59:35.772Z,101860.86
2022-12-18T19:02:04.047Z,101853.94
2022-12-18T19:04:32.733Z,101846.17
2022-12-18T19:06:59.138Z,101847.46
2022-12-18T19:09:25.978Z,101851.23
2022-12-18T19:12:11.881Z,101843.21
2022-12-18T19:14:38.309Z,101842.42
2022-12-18T19:17:04.691Z,101839.84
2022-12-18T19:19:32.320Z,101832.77
2022-12-18T19:21:59.048Z,101828.35
2022-12-18T19:24:25.451Z,101826.91
2022-12-18T19:26:52.239Z,101832.05
2022-12-18T19:29:20.621Z,101841.67
2022-12-18T19:31:47.065Z,101840.09
2022-12-18T19:34:13.566Z,101831.42
2022-12-18T19:36:41.373Z,101828.64
2022-12-18T19:39:17.880Z,101825.92
2022-12-18T19:41:46.574Z,101825.04
2022-12-18T19:44:15.773Z,101823.93
2022-12-18T19:46:42.919Z,101820.90
2022-12-18T19:49:10.763Z,101818.31
2022-12-18T19:51:38.059Z,101821.05
2022-12-18T19:54:04.862Z,101821.88
2022-12-18T19:56:33.964Z,101816.46
2022-12-18T19:59:01.360Z,101814.66
2022-12-18T20:01:29.012Z,101815.94
2022-12-18T20:03:56.821Z,101814.15
2022-12-18T20:06:28.432Z,101812.76
2022-12-18T20:09:00.677Z,101812.68
2022-12-18T20:11:29.072Z,101803.25
2022-12-18T20:13:55.807Z,101799.52
2022-12-18T20:16:22.373Z,101797.54
2022-12-18T20:18:49.374Z,101793.89
2022-12-18T20:21:16.089Z,101790.08
2022-12-18T20:23:43.301Z,101781.23
2022-12-18T20:26:10.581Z,101773.07
2022-12-18T20:28:37.104Z,101764.09
2022-12-18T20:31:08.382Z,101756.42
2022-12-18T20:33:37.301Z,101752.09
2022-12-18T20:36:06.799Z,101748.28
2022-12-18T20:38:35.276Z,101745.92
2022-12-18T20:41:06.454Z,101734.86
2022-12-18T20:43:32.878Z,101729.69
2022-12-18T20:46:04.925Z,101725.67
2022-12-18T20:48:32.666Z,101715.79
2022-12-18T20:51:05.702Z,101717.41
2022-12-18T20:53:33.656Z,101722.61
2022-12-18T20:56:00.142Z,101739.01
2022-12-18T20:58:26.544Z,101746.08
2022-12-18T21:01:05.765Z,101735.59
2022-12-18T21:03:32.405Z,101737.31
2022-12-18T21:05:58.954Z,101747.89
2022-12-18T21:08:25.415Z,101747.63
2022-12-18T21:10:51.810Z,101749.48
2022-12-18T21:13:20.729Z,101745.20
2022-12-18T21:15:47.172Z,101744.45
2022-12-18T21:18:13.821Z,101744.09
2022-12-18T21:20:40.205Z,101743.38
2022-12-18T21:23:15.928Z,101735.84
2022-12-18T21:25:43.273Z,101734.13
2022-12-18T21:28:09.669Z,101735.10
2022-12-18T21:30:36.482Z,101734.75
2022-12-18T21:33:03.115Z,101737.08
2022-12-18T21:35:29.559Z,101741.39
2022-12-18T21:37:58.736Z,101743.75
2022-12-18T21:40:25.341Z,101742.55
2022-12-18T21:43:10.463Z,101740.38
2022-12-18T21:45:41.361Z,101750.84
2022-12-18T21:48:07.839Z,101758.05
2022-12-18T21:50:34.254Z,101755.84
2022-12-18T21:53:00.662Z,101747.70
2022-12-18T21:55:27.044Z,101745.06
2022-12-18T21:57:54.636Z,101742.02
2022-12-18T22:00:21.179Z,101742.13
2022-12-18T22:02:52.485Z,101750.13
2022-12-18T22:05:35.281Z,101744.48
2022-12-18T22:08:01.790Z,101740.34
2022-12-18T22:10:28.599Z,101725.19
2022-12-18T22:12:55.237Z,101709.04
2022-12-18T22:15:22.063Z,101718.44
2022-12-18T22:17:52.710Z,101711.06
2022-12-18T22:20:26.744Z,101714.48
2022-12-18T22:22:53.376Z,101713.58
2022-12-18T22:25:19.921Z,101704.15
2022-12-18T22:28:06.324Z,101700.94
2022-12-18T22:30:33.000Z,101692.55
2022-12-18T22:32:59.692Z,101689.70
2022-12-18T22:35:26.674Z,101693.80
2022-12-18T22:37:53.099Z,101695.33
2022-12-18T22:40:24.676Z,101693.19
2022-12-18T22:42:53.033Z,101684.52
2022-12-18T22:45:20.034Z,101676.12
2022-12-18T22:47:46.461Z,101675.25
2022-12-18T22:50:13.877Z,101672.56
2022-12-18T22:52:40.802Z,101672.34
2022-12-18T22:55:07.874Z,101665.10
2022-12-18T22:57:34.472Z,101658.58
2022-12-18T23:00:02.207Z,101654.58
2022-12-18T23:02:28.833Z,101651.98
2022-12-18T23:04:55.331Z,101647.87
2022-12-18T23:07:21.736Z,101645.79
2022-12-18T23:09:50.550Z,101649.52
2022-12-18T23:12:20.228Z,101647.46
2022-12-18T23:14:47.258Z,101642.44
2022-12-18T23:17:13.923Z,101636.48
2022-12-18T23:19:45.496Z,101630.83
2022-12-18T23:22:15.190Z,101634.39
2022-12-18T23:24:41.606Z,101640.16
2022-12-18T23:27:11.539Z,101647.27
2022-12-18T23:29:39.005Z,101644.59
2022-12-18T23:32:05.461Z,101643.98
2022-12-18T23:34:32.072Z,101638.86
2022-12-18T23:36:58.564Z,101640.33
2022-12-18T23:39:30.015Z,101637.72
2022-12-18T23:41:57.974Z,101626.92
2022-12-18T23:44:24.664Z,101622.02
2022-12-18T23:46:51.168Z,101624.34
2022-12-18T23:49:17.575Z,101620.58
2022-12-18T23:51:44.084Z,101615.25
2022-12-18T23:54:10.758Z,101615.30
2022-12-18T23:56:37.659Z,101618.65
2022-12-18T23:59:04.288Z,101610.98
